sensor_id;sensor_type;location;lat;lon;timestamp;pressure;altitude;pressure_sealevel;temperature;humidity
4199;BME280;2113;50.946;14.610;2023-04-01T00:01:23;95357.19;;;6.45;97.24
4199;BME280;2113;50.946;14.610;2023-04-01T00:03:51;95357.69;;;6.40;97.80
4199;BME280;2113;50.946;14.610;2023-04-01T00:06:20;95356.06;;;6.39;97.74
4199;BME280;2113;50.946;14.610;2023-04-01T00:08:50;95354.56;;;6.36;97.92
4199;BME280;2113;50.946;14.610;2023-04-01T00:11:21;95357.16;;;6.36;98.13
4199;BME280;2113;50.946;14.610;2023-04-01T00:13:49;95358.13;;;6.35;98.08
4199;BME280;2113;50.946;14.610;2023-04-01T00:16:17;95352.34;;;6.41;97.92
4199;BME280;2113;50.946;14.610;2023-04-01T00:18:48;95354.22;;;6.31;98.20
4199;BME280;2113;50.946;14.610;2023-04-01T00:21:18;95349.84;;;6.32;98.71
4199;BME280;2113;50.946;14.610;2023-04-01T00:23:47;95348.22;;;6.31;98.86
4199;BME280;2113;50.946;14.610;2023-04-01T00:26:18;95349.38;;;6.28;99.03
4199;BME280;2113;50.946;14.610;2023-04-01T00:28:48;95347.56;;;6.29;99.02
4199;BME280;2113;50.946;14.610;2023-04-01T00:31:17;95346.94;;;6.27;99.11
4199;BME280;2113;50.946;14.610;2023-04-01T00:33:45;95343.53;;;6.26;99.28
4199;BME280;2113;50.946;14.610;2023-04-01T00:36:15;95354.56;;;6.28;99.21
4199;BME280;2113;50.946;14.610;2023-04-01T00:38:44;95347.75;;;6.27;99.00
4199;BME280;2113;50.946;14.610;2023-04-01T00:41:14;95343.19;;;6.29;98.81
4199;BME280;2113;50.946;14.610;2023-04-01T00:43:46;95350.81;;;6.31;98.92
4199;BME280;2113;50.946;14.610;2023-04-01T00:46:14;95353.41;;;6.31;98.81
4199;BME280;2113;50.946;14.610;2023-04-01T00:48:45;95352.91;;;6.27;99.11
4199;BME280;2113;50.946;14.610;2023-04-01T00:51:17;95351.44;;;6.25;99.24
4199;BME280;2113;50.946;14.610;2023-04-01T00:53:49;95349.66;;;6.25;98.88
4199;BME280;2113;50.946;14.610;2023-04-01T00:56:22;95351.28;;;6.26;99.19
4199;BME280;2113;50.946;14.610;2023-04-01T00:58:58;95349.66;;;6.25;99.11
4199;BME280;2113;50.946;14.610;2023-04-01T01:01:29;95351.75;;;6.22;99.57
4199;BME280;2113;50.946;14.610;2023-04-01T01:03:58;95350.13;;;6.21;99.91
4199;BME280;2113;50.946;14.610;2023-04-01T01:06:37;95351.09;;;6.20;100.00
4199;BME280;2113;50.946;14.610;2023-04-01T01:09:26;95351.09;;;6.20;99.94
4199;BME280;2113;50.946;14.610;2023-04-01T01:12:03;95350.28;;;6.19;100.00
4199;BME280;2113;50.946;14.610;2023-04-01T01:14:48;95352.34;;;6.16;100.00
4199;BME280;2113;50.946;14.610;2023-04-01T01:17:26;95358.19;;;6.18;100.00
4199;BME280;2113;50.946;14.610;2023-04-01T01:23:33;95347.69;;;6.19;100.00
4199;BME280;2113;50.946;14.610;2023-04-01T01:26:28;95353.97;;;6.17;100.00
4199;BME280;2113;50.946;14.610;2023-04-01T01:29:07;95348.50;;;6.20;100.00
4199;BME280;2113;50.946;14.610;2023-04-01T01:31:47;95356.41;;;6.18;100.00
4199;BME280;2113;50.946;14.610;2023-04-01T01:34:22;95347.69;;;6.19;100.00
4199;BME280;2113;50.946;14.610;2023-04-01T01:36:56;95346.88;;;6.19;100.00
4199;BME280;2113;50.946;14.610;2023-04-01T01:39:30;95347.84;;;6.18;100.00
4199;BME280;2113;50.946;14.610;2023-04-01T01:42:02;95343.47;;;6.18;100.00
4199;BME280;2113;50.946;14.610;2023-04-01T01:44:32;95340.72;;;6.20;100.00
4199;BME280;2113;50.946;14.610;2023-04-01T01:47:02;95348.34;;;6.21;100.00
4199;BME280;2113;50.946;14.610;2023-04-01T01:49:31;95348.50;;;6.20;100.00
4199;BME280;2113;50.946;14.610;2023-04-01T01:52:02;95350.28;;;6.19;100.00
4199;BME280;2113;50.946;14.610;2023-04-01T01:54:30;95346.72;;;6.20;100.00
4199;BME280;2113;50.946;14.610;2023-04-01T01:57:04;95344.28;;;6.19;100.00
4199;BME280;2113;50.946;14.610;2023-04-01T01:59:38;95352.88;;;6.19;100.00
4199;BME280;2113;50.946;14.610;2023-04-01T02:02:09;95354.63;;;6.19;100.00
4199;BME280;2113;50.946;14.610;2023-04-01T02:04:39;95358.72;;;6.21;100.00
4199;BME280;2113;50.946;14.610;2023-04-01T02:07:16;95352.41;;;6.24;100.00
4199;BME280;2113;50.946;14.610;2023-04-01T02:09:47;95352.09;;;6.27;100.00
4199;BME280;2113;50.946;14.610;2023-04-01T02:12:19;95353.72;;;6.28;100.00
4199;BME280;2113;50.946;14.610;2023-04-01T02:14:52;95348.84;;;6.25;100.00
4199;BME280;2113;50.946;14.610;2023-04-01T02:17:22;95343.53;;;6.26;100.00
4199;BME280;2113;50.946;14.610;2023-04-01T02:19:56;95345.91;;;6.20;100.00
4199;BME280;2113;50.946;14.610;2023-04-01T02:22:29;95342.66;;;6.18;100.00
4199;BME280;2113;50.946;14.610;2023-04-01T02:25:02;95345.56;;;6.15;100.00
4199;BME280;2113;50.946;14.610;2023-04-01T02:27:32;95346.34;;;6.15;100.00
4199;BME280;2113;50.946;14.610;2023-04-01T02:30:01;95344.75;;;6.14;100.00
4199;BME280;2113;50.946;14.610;2023-04-01T02:32:38;95342.97;;;6.15;100.00
4199;BME280;2113;50.946;14.610;2023-04-01T02:35:09;95347.34;;;6.14;100.00
4199;BME280;2113;50.946;14.610;2023-04-01T02:37:40;95351.72;;;6.14;100.00
4199;BME280;2113;50.946;14.610;2023-04-01T02:40:12;95351.38;;;6.17;100.00
4199;BME280;2113;50.946;14.610;2023-04-01T02:42:41;95351.38;;;6.17;100.00
4199;BME280;2113;50.946;14.610;2023-04-01T02:45:10;95353.34;;;6.15;100.00
4199;BME280;2113;50.946;14.610;2023-04-01T02:47:39;95353.81;;;6.18;100.00
4199;BME280;2113;50.946;14.610;2023-04-01T02:50:08;95355.75;;;6.16;100.00
4199;BME280;2113;50.946;14.610;2023-04-01T02:52:36;95354.31;;;6.14;100.00
4199;BME280;2113;50.946;14.610;2023-04-01T02:55:07;95366.44;;;6.13;100.00
4199;BME280;2113;50.946;14.610;2023-04-01T02:57:35;95360.31;;;6.14;100.00
4199;BME280;2113;50.946;14.610;2023-04-01T03:00:05;95353.66;;;6.12;100.00
4199;BME280;2113;50.946;14.610;2023-04-01T03:02:38;95370.81;;;6.13;100.00
4199;BME280;2113;50.946;14.610;2023-04-01T03:05:07;95367.09;;;6.15;100.00
4199;BME280;2113;50.946;14.610;2023-04-01T03:07:36;95363.72;;;6.15;100.00
4199;BME280;2113;50.946;14.610;2023-04-01T03:10:07;95368.09;;;6.14;100.00
4199;BME280;2113;50.946;14.610;2023-04-01T03:12:36;95368.53;;;6.10;100.00
4199;BME280;2113;50.946;14.610;2023-04-01T03:15:05;95373.34;;;6.04;100.00
4199;BME280;2113;50.946;14.610;2023-04-01T03:17:38;95366.88;;;6.00;100.00
4199;BME280;2113;50.946;14.610;2023-04-01T03:20:08;95363.63;;;5.98;100.00
4199;BME280;2113;50.946;14.610;2023-04-01T03:22:38;95369.09;;;5.95;100.00
4199;BME280;2113;50.946;14.610;2023-04-01T03:25:10;95374.28;;;5.95;100.00
4199;BME280;2113;50.946;14.610;2023-04-01T03:27:38;95370.72;;;5.96;100.00
4199;BME280;2113;50.946;14.610;2023-04-01T03:30:08;95369.09;;;5.95;100.00
4199;BME280;2113;50.946;14.610;2023-04-01T03:32:46;95369.47;;;6.00;100.00
4199;BME280;2113;50.946;14.610;2023-04-01T03:35:14;95368.66;;;6.00;100.00
4199;BME280;2113;50.946;14.610;2023-04-01T03:37:44;95378.84;;;6.01;100.00
4199;BME280;2113;50.946;14.610;2023-04-01T03:40:14;95381.13;;;6.04;100.00
4199;BME280;2113;50.946;14.610;2023-04-01T03:42:43;95379.88;;;6.09;100.00
4199;BME280;2113;50.946;14.610;2023-04-01T03:45:11;95387.34;;;6.12;100.00
4199;BME280;2113;50.946;14.610;2023-04-01T03:47:40;95388.16;;;6.12;100.00
4199;BME280;2113;50.946;14.610;2023-04-01T03:50:09;95392.84;;;6.17;100.00
4199;BME280;2113;50.946;14.610;2023-04-01T03:52:38;95394.81;;;6.15;100.00
4199;BME280;2113;50.946;14.610;2023-04-01T03:55:07;95394.63;;;6.16;100.00
4199;BME280;2113;50.946;14.610;2023-04-01T03:57:39;95401.28;;;6.19;100.00
4199;BME280;2113;50.946;14.610;2023-04-01T04:00:15;95408.25;;;6.18;100.00
4199;BME280;2113;50.946;14.610;2023-04-01T04:02:47;95404.84;;;6.18;100.00
4199;BME280;2113;50.946;14.610;2023-04-01T04:05:22;95406.34;;;6.20;100.00
4199;BME280;2113;50.946;14.610;2023-04-01T04:07:52;95410.69;;;6.20;100.00
4199;BME280;2113;50.946;14.610;2023-04-01T04:10:21;95412.13;;;6.14;100.00
4199;BME280;2113;50.946;14.610;2023-04-01T04:12:52;95413.41;;;6.10;100.00
4199;BME280;2113;50.946;14.610;2023-04-01T04:15:22;95410.97;;;6.09;100.00
4199;BME280;2113;50.946;14.610;2023-04-01T04:17:51;95419.84;;;6.06;100.00
4199;BME280;2113;50.946;14.610;2023-04-01T04:20:19;95417.41;;;6.04;100.00
4199;BME280;2113;50.946;14.610;2023-04-01T04:22:48;95420.00;;;6.04;100.00
4199;BME280;2113;50.946;14.610;2023-04-01T04:25:17;95427.47;;;6.07;100.00
4199;BME280;2113;50.946;14.610;2023-04-01T04:27:45;95421.63;;;6.05;100.00
4199;BME280;2113;50.946;14.610;2023-04-01T04:30:16;95421.91;;;6.02;100.00
4199;BME280;2113;50.946;14.610;2023-04-01T04:32:44;95427.09;;;6.02;100.00
4199;BME280;2113;50.946;14.610;2023-04-01T04:35:13;95428.06;;;6.01;100.00
4199;BME280;2113;50.946;14.610;2023-04-01T04:37:42;95427.91;;;6.03;100.00
4199;BME280;2113;50.946;14.610;2023-04-01T04:40:11;95425.81;;;5.98;100.00
4199;BME280;2113;50.946;14.610;2023-04-01T04:42:40;95427.44;;;5.99;100.00
4199;BME280;2113;50.946;14.610;2023-04-01T04:45:12;95436.84;;;6.00;100.00
4199;BME280;2113;50.946;14.610;2023-04-01T04:47:50;95430.03;;;5.99;100.00
4199;BME280;2113;50.946;14.610;2023-04-01T04:50:18;95435.84;;;6.01;100.00
4199;BME280;2113;50.946;14.610;2023-04-01T04:52:47;95432.28;;;6.02;100.00
4199;BME280;2113;50.946;14.610;2023-04-01T04:55:16;95439.09;;;6.03;100.00
4199;BME280;2113;50.946;14.610;2023-04-01T04:57:48;95429.25;;;6.07;100.00
4199;BME280;2113;50.946;14.610;2023-04-01T05:00:17;95434.56;;;6.05;100.00
4199;BME280;2113;50.946;14.610;2023-04-01T05:02:56;95436.22;;;6.06;100.00
4199;BME280;2113;50.946;14.610;2023-04-01T05:05:24;95428.13;;;6.10;100.00
4199;BME280;2113;50.946;14.610;2023-04-01T05:07:53;95438.81;;;6.06;100.00
4199;BME280;2113;50.946;14.610;2023-04-01T05:10:21;95442.34;;;6.05;100.00
4199;BME280;2113;50.946;14.610;2023-04-01T05:12:50;95446.28;;;6.10;100.00
4199;BME280;2113;50.946;14.610;2023-04-01T05:15:21;95452.13;;;6.12;100.00
4199;BME280;2113;50.946;14.610;2023-04-01T05:17:49;95450.34;;;6.12;100.00
4199;BME280;2113;50.946;14.610;2023-04-01T05:20:19;95453.75;;;6.13;100.00
4199;BME280;2113;50.946;14.610;2023-04-01T05:22:47;95447.91;;;6.11;100.00
4199;BME280;2113;50.946;14.610;2023-04-01T05:25:16;95449.88;;;6.17;100.00
4199;BME280;2113;50.946;14.610;2023-04-01T05:27:44;95448.25;;;6.16;100.00
4199;BME280;2113;50.946;14.610;2023-04-01T05:30:13;95458.63;;;6.16;100.00
4199;BME280;2113;50.946;14.610;2023-04-01T05:33:01;95453.28;;;6.17;100.00
4199;BME280;2113;50.946;14.610;2023-04-01T05:35:31;95453.94;;;6.19;100.00
4199;BME280;2113;50.946;14.610;2023-04-01T05:38:00;95456.09;;;6.24;100.00
4199;BME280;2113;50.946;14.610;2023-04-01T05:40:29;95457.72;;;6.25;100.00
4199;BME280;2113;50.946;14.610;2023-04-01T05:42:58;95460.97;;;6.27;100.00
4199;BME280;2113;50.946;14.610;2023-04-01T05:45:26;95456.63;;;6.27;100.00
4199;BME280;2113;50.946;14.610;2023-04-01T05:48:13;95465.84;;;6.30;100.00
4199;BME280;2113;50.946;14.610;2023-04-01T05:50:44;95467.31;;;6.32;100.00
4199;BME280;2113;50.946;14.610;2023-04-01T05:53:13;95461.03;;;6.35;100.00
4199;BME280;2113;50.946;14.610;2023-04-01T05:55:42;95465.63;;;6.41;100.00
4199;BME280;2113;50.946;14.610;2023-04-01T05:58:11;95462.84;;;6.42;100.00
4199;BME280;2113;50.946;14.610;2023-04-01T06:00:42;95464.47;;;6.43;100.00
4199;BME280;2113;50.946;14.610;2023-04-01T06:03:13;95471.94;;;6.47;100.00
4199;BME280;2113;50.946;14.610;2023-04-01T06:05:44;95466.75;;;6.47;100.00
4199;BME280;2113;50.946;14.610;2023-04-01T06:08:14;95470.84;;;6.49;100.00
4199;BME280;2113;50.946;14.610;2023-04-01T06:11:06;95470.84;;;6.49;100.00
4199;BME280;2113;50.946;14.610;2023-04-01T06:13:56;95475.25;;;6.57;100.00
4199;BME280;2113;50.946;14.610;2023-04-01T06:16:43;95482.53;;;6.53;100.00
4199;BME280;2113;50.946;14.610;2023-04-01T06:19:32;95481.09;;;6.59;100.00
4199;BME280;2113;50.946;14.610;2023-04-01T06:22:15;95478.88;;;6.64;100.00
4199;BME280;2113;50.946;14.610;2023-04-01T06:25:04;95482.31;;;6.72;99.97
4199;BME280;2113;50.946;14.610;2023-04-01T06:27:46;95490.09;;;6.72;99.35
4199;BME280;2113;50.946;14.610;2023-04-01T06:30:32;95487.84;;;6.77;99.34
4199;BME280;2113;50.946;14.610;2023-04-01T06:33:22;95479.63;;;6.82;98.58
4199;BME280;2113;50.946;14.610;2023-04-01T06:39:13;95490.81;;;6.83;97.91
4199;BME280;2113;50.946;14.610;2023-04-01T06:44:48;95488.81;;;7.10;96.59
4199;BME280;2113;50.946;14.610;2023-04-01T06:47:49;95490.13;;;7.14;96.33
4199;BME280;2113;50.946;14.610;2023-04-01T06:50:44;95485.94;;;7.30;96.61
4199;BME280;2113;50.946;14.610;2023-04-01T06:53:38;95490.47;;;7.20;95.80
4199;BME280;2113;50.946;14.610;2023-04-01T06:56:36;95494.19;;;7.17;96.44
4199;BME280;2113;50.946;14.610;2023-04-01T06:59:19;95500.03;;;7.19;97.29
4199;BME280;2113;50.946;14.610;2023-04-01T07:01:52;95491.59;;;7.25;96.80
4199;BME280;2113;50.946;14.610;2023-04-01T07:04:25;95494.84;;;7.19;95.85
4199;BME280;2113;50.946;14.610;2023-04-01T07:06:58;95493.88;;;7.20;96.34
4199;BME280;2113;50.946;14.610;2023-04-01T07:09:31;95498.59;;;7.25;95.82
4199;BME280;2113;50.946;14.610;2023-04-01T07:12:29;95500.91;;;7.36;96.46
4199;BME280;2113;50.946;14.610;2023-04-01T07:15:22;95504.63;;;7.33;96.34
4199;BME280;2113;50.946;14.610;2023-04-01T07:17:56;95497.34;;;7.37;96.28
4199;BME280;2113;50.946;14.610;2023-04-01T07:20:29;95514.22;;;7.41;95.98
4199;BME280;2113;50.946;14.610;2023-04-01T07:23:03;95510.19;;;7.55;96.30
4199;BME280;2113;50.946;14.610;2023-04-01T07:25:58;95515.38;;;7.46;95.77
4199;BME280;2113;50.946;14.610;2023-04-01T07:28:35;95513.28;;;7.50;95.62
4199;BME280;2113;50.946;14.610;2023-04-01T07:31:20;95519.13;;;7.52;95.58
4199;BME280;2113;50.946;14.610;2023-04-01T07:34:02;95526.06;;;7.35;95.38
4199;BME280;2113;50.946;14.610;2023-04-01T07:36:38;95517.16;;;7.38;95.25
4199;BME280;2113;50.946;14.610;2023-04-01T07:39:15;95514.94;;;7.51;95.29
4199;BME280;2113;50.946;14.610;2023-04-01T07:42:06;95524.72;;;7.65;95.45
4199;BME280;2113;50.946;14.610;2023-04-01T07:44:47;95522.81;;;8.00;94.78
4199;BME280;2113;50.946;14.610;2023-04-01T07:47:32;95528.81;;;8.00;93.73
4199;BME280;2113;50.946;14.610;2023-04-01T07:50:11;95528.78;;;7.84;93.10
4199;BME280;2113;50.946;14.610;2023-04-01T07:52:44;95531.38;;;7.76;93.55
4199;BME280;2113;50.946;14.610;2023-04-01T07:55:25;95533.28;;;7.66;93.82
4199;BME280;2113;50.946;14.610;2023-04-01T07:58:00;95533.28;;;7.58;93.90
4199;BME280;2113;50.946;14.610;2023-04-01T08:00:42;95534.41;;;7.55;94.50
4199;BME280;2113;50.946;14.610;2023-04-01T08:03:33;95539.06;;;7.43;95.03
4199;BME280;2113;50.946;14.610;2023-04-01T08:06:13;95538.56;;;7.40;95.46
4199;BME280;2113;50.946;14.610;2023-04-01T08:08:55;95543.31;;;7.44;95.66
4199;BME280;2113;50.946;14.610;2023-04-01T08:11:43;95547.69;;;7.52;95.40
4199;BME280;2113;50.946;14.610;2023-04-01T08:14:40;95542.19;;;7.47;94.49
4199;BME280;2113;50.946;14.610;2023-04-01T08:17:37;95553.59;;;7.62;94.64
4199;BME280;2113;50.946;14.610;2023-04-01T08:20:17;95549.56;;;7.76;93.91
4199;BME280;2113;50.946;14.610;2023-04-01T08:22:52;95544.56;;;7.99;93.89
4199;BME280;2113;50.946;14.610;2023-04-01T08:25:30;95539.22;;;8.25;93.58
4199;BME280;2113;50.946;14.610;2023-04-01T08:28:03;95530.75;;;8.23;92.32
4199;BME280;2113;50.946;14.610;2023-04-01T08:30:41;95541.66;;;8.26;92.32
4199;BME280;2113;50.946;14.610;2023-04-01T08:33:16;95546.59;;;8.45;92.97
4199;BME280;2113;50.946;14.610;2023-04-01T08:35:55;95538.94;;;8.44;91.86
4199;BME280;2113;50.946;14.610;2023-04-01T08:38:30;95549.50;;;8.50;91.56
4199;BME280;2113;50.946;14.610;2023-04-01T08:41:01;95539.22;;;8.25;91.58
4199;BME280;2113;50.946;14.610;2023-04-01T08:44:15;95537.91;;;8.20;92.07
4199;BME280;2113;50.946;14.610;2023-04-01T08:47:24;95549.25;;;7.95;91.84
4199;BME280;2113;50.946;14.610;2023-04-01T08:53:21;95550.41;;;8.09;93.51
4199;BME280;2113;50.946;14.610;2023-04-01T08:56:06;95550.59;;;7.99;93.05
4199;BME280;2113;50.946;14.610;2023-04-01T08:59:05;95548.97;;;8.14;94.35
4199;BME280;2113;50.946;14.610;2023-04-01T09:02:23;95550.59;;;8.15;92.23
4199;BME280;2113;50.946;14.610;2023-04-01T09:05:22;95550.78;;;8.38;91.72
4199;BME280;2113;50.946;14.610;2023-04-01T09:08:02;95546.81;;;9.07;87.77
4199;BME280;2113;50.946;14.610;2023-04-01T09:10:50;95554.81;;;8.98;87.65
4199;BME280;2113;50.946;14.610;2023-04-01T09:17:36;95551.66;;;9.57;84.39
4199;BME280;2113;50.946;14.610;2023-04-01T09:20:27;95549.44;;;9.46;85.83
4199;BME280;2113;50.946;14.610;2023-04-01T09:23:15;95551.22;;;9.46;83.87
4199;BME280;2113;50.946;14.610;2023-04-01T09:25:58;95555.22;;;9.65;84.92
4199;BME280;2113;50.946;14.610;2023-04-01T09:28:41;95561.19;;;9.42;83.12
4199;BME280;2113;50.946;14.610;2023-04-01T09:31:23;95562.16;;;10.03;82.55
4199;BME280;2113;50.946;14.610;2023-04-01T09:34:27;95556.97;;;10.03;81.85
4199;BME280;2113;50.946;14.610;2023-04-01T09:37:17;95559.78;;;10.47;80.38
4199;BME280;2113;50.946;14.610;2023-04-01T09:40:08;95568.34;;;9.79;80.41
4199;BME280;2113;50.946;14.610;2023-04-01T09:43:05;95569.66;;;9.75;82.33
4199;BME280;2113;50.946;14.610;2023-04-01T09:45:44;95573.84;;;9.45;82.59
4199;BME280;2113;50.946;14.610;2023-04-01T09:48:30;95568.06;;;9.27;85.09
4199;BME280;2113;50.946;14.610;2023-04-01T09:51:17;95578.56;;;8.95;84.52
4199;BME280;2113;50.946;14.610;2023-04-01T09:54:00;95577.41;;;9.13;86.78
4199;BME280;2113;50.946;14.610;2023-04-01T10:06:30;95569.00;;;10.04;84.86
4199;BME280;2113;50.946;14.610;2023-04-01T10:12:49;95583.09;;;9.09;85.26
4199;BME280;2113;50.946;14.610;2023-04-01T10:18:47;95582.72;;;9.20;88.88
4199;BME280;2113;50.946;14.610;2023-04-01T10:21:50;95582.72;;;9.20;89.43
4199;BME280;2113;50.946;14.610;2023-04-01T10:24:56;95585.13;;;9.30;86.92
4199;BME280;2113;50.946;14.610;2023-04-01T10:28:08;95580.56;;;9.40;85.33
4199;BME280;2113;50.946;14.610;2023-04-01T10:31:42;95578.03;;;9.15;88.36
4199;BME280;2113;50.946;14.610;2023-04-01T10:34:42;95582.72;;;9.28;87.82
4199;BME280;2113;50.946;14.610;2023-04-01T10:37:33;95583.13;;;9.48;87.91
4199;BME280;2113;50.946;14.610;2023-04-01T10:56:39;95586.38;;;9.50;85.93
4199;BME280;2113;50.946;14.610;2023-04-01T11:00:10;95585.34;;;9.98;86.79
4199;BME280;2113;50.946;14.610;2023-04-01T11:03:20;95573.72;;;10.77;82.09
4199;BME280;2113;50.946;14.610;2023-04-01T11:09:59;95567.88;;;13.62;73.61
4199;BME280;2113;50.946;14.610;2023-04-01T11:13:02;95576.66;;;12.21;73.09
4199;BME280;2113;50.946;14.610;2023-04-01T11:21:55;95576.06;;;10.49;79.45
4199;BME280;2113;50.946;14.610;2023-04-01T11:25:00;95573.75;;;10.31;81.58
4199;BME280;2113;50.946;14.610;2023-04-01T11:27:54;95572.44;;;10.36;82.47
4199;BME280;2113;50.946;14.610;2023-04-01T11:30:41;95571.41;;;10.97;79.62
4199;BME280;2113;50.946;14.610;2023-04-01T11:33:19;95575.38;;;11.08;80.09
4199;BME280;2113;50.946;14.610;2023-04-01T11:36:11;95576.56;;;10.67;78.51
4199;BME280;2113;50.946;14.610;2023-04-01T11:39:00;95581.16;;;10.43;81.34
4199;BME280;2113;50.946;14.610;2023-04-01T11:41:56;95585.56;;;10.42;84.01
4199;BME280;2113;50.946;14.610;2023-04-01T11:44:55;95592.72;;;9.94;83.72
4199;BME280;2113;50.946;14.610;2023-04-01T11:47:52;95593.56;;;9.87;84.17
4199;BME280;2113;50.946;14.610;2023-04-01T11:50:30;95593.97;;;9.68;83.27
4199;BME280;2113;50.946;14.610;2023-04-01T11:53:06;95600.72;;;9.85;82.65
4199;BME280;2113;50.946;14.610;2023-04-01T11:55:47;95589.97;;;9.88;83.68
4199;BME280;2113;50.946;14.610;2023-04-01T11:58:31;95593.72;;;9.85;82.35
4199;BME280;2113;50.946;14.610;2023-04-01T12:01:20;95591.28;;;10.46;80.83
4199;BME280;2113;50.946;14.610;2023-04-01T12:07:05;95593.00;;;10.76;76.82
4199;BME280;2113;50.946;14.610;2023-04-01T12:09:42;95589.44;;;10.69;78.81
4199;BME280;2113;50.946;14.610;2023-04-01T12:12:18;95587.19;;;10.66;79.21
4199;BME280;2113;50.946;14.610;2023-04-01T12:15:00;95596.56;;;10.38;79.42
4199;BME280;2113;50.946;14.610;2023-04-01T12:17:37;95589.22;;;10.10;80.47
4199;BME280;2113;50.946;14.610;2023-04-01T12:20:33;95597.28;;;9.92;81.52
4199;BME280;2113;50.946;14.610;2023-04-01T12:23:16;95597.53;;;9.75;83.93
4199;BME280;2113;50.946;14.610;2023-04-01T12:26:05;95599.47;;;9.42;84.88
4199;BME280;2113;50.946;14.610;2023-04-01T12:28:41;95610.75;;;9.10;86.70
4199;BME280;2113;50.946;14.610;2023-04-01T12:31:27;95599.41;;;8.86;88.45
4199;BME280;2113;50.946;14.610;2023-04-01T12:37:10;95604.38;;;9.20;89.80
4199;BME280;2113;50.946;14.610;2023-04-01T12:39:56;95596.50;;;9.53;87.06
4199;BME280;2113;50.946;14.610;2023-04-01T12:42:44;95595.69;;;10.14;85.17
4199;BME280;2113;50.946;14.610;2023-04-01T12:45:28;95598.28;;;10.14;82.45
4199;BME280;2113;50.946;14.610;2023-04-01T12:51:46;95595.94;;;9.66;85.41
4199;BME280;2113;50.946;14.610;2023-04-01T12:54:41;95594.78;;;9.99;84.43
4199;BME280;2113;50.946;14.610;2023-04-01T12:57:28;95602.47;;;10.31;81.68
4199;BME280;2113;50.946;14.610;2023-04-01T13:00:39;95598.19;;;11.14;81.20
4199;BME280;2113;50.946;14.610;2023-04-01T13:03:36;95600.91;;;11.64;78.50
4199;BME280;2113;50.946;14.610;2023-04-01T13:09:25;95612.28;;;11.42;74.77
4199;BME280;2113;50.946;14.610;2023-04-01T13:12:12;95606.34;;;11.33;76.02
4199;BME280;2113;50.946;14.610;2023-04-01T13:15:08;95605.56;;;11.10;75.32
4199;BME280;2113;50.946;14.610;2023-04-01T13:17:47;95612.25;;;10.75;77.58
4199;BME280;2113;50.946;14.610;2023-04-01T13:20:28;95612.72;;;10.56;81.27
4199;BME280;2113;50.946;14.610;2023-04-01T13:23:10;95618.00;;;10.48;81.17
4199;BME280;2113;50.946;14.610;2023-04-01T13:25:48;95623.94;;;10.03;86.08
4199;BME280;2113;50.946;14.610;2023-04-01T13:28:39;95632.66;;;9.56;85.79
4199;BME280;2113;50.946;14.610;2023-04-01T13:31:26;95633.34;;;9.34;87.53
4199;BME280;2113;50.946;14.610;2023-04-01T13:34:07;95641.53;;;9.14;88.75
4199;BME280;2113;50.946;14.610;2023-04-01T13:36:49;95642.84;;;8.94;91.11
4199;BME280;2113;50.946;14.610;2023-04-01T13:39:30;95643.19;;;8.83;91.54
4199;BME280;2113;50.946;14.610;2023-04-01T13:42:17;95650.00;;;8.60;92.10
4199;BME280;2113;50.946;14.610;2023-04-01T13:44:52;95654.53;;;8.49;93.35
4199;BME280;2113;50.946;14.610;2023-04-01T13:54:12;95653.97;;;8.21;94.09
4199;BME280;2113;50.946;14.610;2023-04-01T13:56:50;95653.16;;;8.13;92.52
4199;BME280;2113;50.946;14.610;2023-04-01T13:59:49;95650.03;;;8.09;91.77
4199;BME280;2113;50.946;14.610;2023-04-01T14:02:38;95655.53;;;7.98;92.84
4199;BME280;2113;50.946;14.610;2023-04-01T14:05:29;95657.97;;;8.00;93.80
4199;BME280;2113;50.946;14.610;2023-04-01T14:11:10;95657.97;;;8.00;93.92
4199;BME280;2113;50.946;14.610;2023-04-01T14:13:50;95656.97;;;7.93;93.78
4199;BME280;2113;50.946;14.610;2023-04-01T14:16:47;95660.72;;;7.90;94.33
4199;BME280;2113;50.946;14.610;2023-04-01T14:19:33;95649.84;;;7.95;95.52
4199;BME280;2113;50.946;14.610;2023-04-01T14:22:11;95657.38;;;8.06;95.12
4199;BME280;2113;50.946;14.610;2023-04-01T14:25:12;95654.41;;;8.09;94.07
4199;BME280;2113;50.946;14.610;2023-04-01T14:27:50;95657.47;;;7.96;93.22
4199;BME280;2113;50.946;14.610;2023-04-01T14:30:35;95657.47;;;7.96;92.31
4199;BME280;2113;50.946;14.610;2023-04-01T14:33:26;95656.56;;;8.21;93.23
4199;BME280;2113;50.946;14.610;2023-04-01T14:36:11;95659.03;;;8.31;90.87
4199;BME280;2113;50.946;14.610;2023-04-01T14:38:54;95653.41;;;8.44;91.27
4199;BME280;2113;50.946;14.610;2023-04-01T14:41:40;95651.63;;;8.69;91.58
4199;BME280;2113;50.946;14.610;2023-04-01T14:44:43;95650.81;;;8.93;91.44
4199;BME280;2113;50.946;14.610;2023-04-01T14:47:39;95646.53;;;9.16;90.75
4199;BME280;2113;50.946;14.610;2023-04-01T14:50:16;95649.59;;;9.52;90.57
4199;BME280;2113;50.946;14.610;2023-04-01T14:52:55;95653.66;;;9.54;88.57
4199;BME280;2113;50.946;14.610;2023-04-01T14:55:30;95656.25;;;9.46;88.30
4199;BME280;2113;50.946;14.610;2023-04-01T14:58:08;95656.28;;;9.30;87.07
4199;BME280;2113;50.946;14.610;2023-04-01T15:00:47;95655.03;;;9.10;86.86
4199;BME280;2113;50.946;14.610;2023-04-01T15:03:22;95654.72;;;8.97;88.20
4199;BME280;2113;50.946;14.610;2023-04-01T15:06:10;95662.22;;;8.83;85.87
4199;BME280;2113;50.946;14.610;2023-04-01T15:08:51;95657.50;;;8.79;87.28
4199;BME280;2113;50.946;14.610;2023-04-01T15:11:34;95664.81;;;8.91;88.40
4199;BME280;2113;50.946;14.610;2023-04-01T15:14:28;95671.31;;;9.12;88.06
4199;BME280;2113;50.946;14.610;2023-04-01T15:17:13;95662.47;;;9.37;86.04
4199;BME280;2113;50.946;14.610;2023-04-01T15:19:59;95669.97;;;9.40;85.82
4199;BME280;2113;50.946;14.610;2023-04-01T15:22:43;95668.66;;;9.36;84.93
4199;BME280;2113;50.946;14.610;2023-04-01T15:25:25;95664.72;;;9.48;85.73
4199;BME280;2113;50.946;14.610;2023-04-01T15:28:03;95665.22;;;9.52;85.13
4199;BME280;2113;50.946;14.610;2023-04-01T15:30:37;95664.81;;;9.71;84.28
4199;BME280;2113;50.946;14.610;2023-04-01T15:33:38;95671.75;;;9.48;85.46
4199;BME280;2113;50.946;14.610;2023-04-01T15:36:18;95673.38;;;9.49;84.35
4199;BME280;2113;50.946;14.610;2023-04-01T15:38:59;95669.47;;;9.53;85.85
4199;BME280;2113;50.946;14.610;2023-04-01T15:41:40;95678.94;;;9.38;86.23
4199;BME280;2113;50.946;14.610;2023-04-01T15:44:42;95681.41;;;9.23;86.49
4199;BME280;2113;50.946;14.610;2023-04-01T15:47:32;95683.03;;;9.24;86.31